createdAt,value
2023-05-14T00:00:44.005Z,12.06
2023-05-14T00:03:47.778Z,12.00
2023-05-14T00:06:50.023Z,11.88
2023-05-14T00:09:54.744Z,11.81
2023-05-14T00:12:56.686Z,11.73
2023-05-14T00:15:58.795Z,11.72
2023-05-14T00:19:03.278Z,11.76
2023-05-14T00:22:05.383Z,11.68
2023-05-14T00:25:08.071Z,11.63
2023-05-14T00:28:10.118Z,11.55
2023-05-14T00:31:12.151Z,11.56
2023-05-14T00:34:15.703Z,11.52
2023-05-14T00:37:17.701Z,11.46
2023-05-14T00:40:20.083Z,11.43
2023-05-14T00:43:22.741Z,11.41
2023-05-14T00:46:24.892Z,11.41
2023-05-14T00:49:29.179Z,11.40
2023-05-14T00:52:32.188Z,11.39
2023-05-14T00:55:34.658Z,11.30
2023-05-14T00:58:38.418Z,11.28
2023-05-14T01:01:40.749Z,11.29
2023-05-14T01:04:44.321Z,11.29
2023-05-14T01:07:49.545Z,11.29
2023-05-14T01:10:52.871Z,11.37
2023-05-14T01:13:59.626Z,11.33
2023-05-14T01:17:03.998Z,11.29
2023-05-14T01:20:08.491Z,11.38
2023-05-14T01:23:11.725Z,11.35
2023-05-14T01:26:13.777Z,11.38
2023-05-14T01:29:19.486Z,11.42
2023-05-14T01:32:24.687Z,11.36
2023-05-14T01:35:28.609Z,11.27
2023-05-14T01:38:34.258Z,11.20
2023-05-14T01:41:37.288Z,11.15
2023-05-14T01:44:39.425Z,11.13
2023-05-14T01:47:41.504Z,11.06
2023-05-14T01:50:43.629Z,10.98
2023-05-14T01:53:47.870Z,10.92
2023-05-14T01:56:50.189Z,10.92
2023-05-14T01:59:52.349Z,10.85
2023-05-14T02:02:54.638Z,10.80
2023-05-14T02:05:58.634Z,10.78
2023-05-14T02:09:03.429Z,10.86
2023-05-14T02:12:05.416Z,10.93
2023-05-14T02:15:09.305Z,10.99
2023-05-14T02:18:11.459Z,11.01
2023-05-14T02:21:13.779Z,10.93
2023-05-14T02:24:17.372Z,10.84
2023-05-14T02:27:19.484Z,10.81
2023-05-14T02:30:21.821Z,10.80
2023-05-14T02:33:24.001Z,10.86
2023-05-14T02:36:26.442Z,10.93
2023-05-14T02:39:30.193Z,10.96
2023-05-14T02:42:32.402Z,10.96
2023-05-14T02:45:34.346Z,10.96
2023-05-14T02:48:36.226Z,10.97
2023-05-14T02:51:38.301Z,10.95
2023-05-14T02:54:41.797Z,10.92
2023-05-14T02:57:43.671Z,10.88
2023-05-14T03:00:45.950Z,10.88
2023-05-14T03:03:48.276Z,10.80
2023-05-14T03:06:51.310Z,10.77
2023-05-14T03:09:54.726Z,10.73
2023-05-14T03:12:57.023Z,10.59
2023-05-14T03:15:59.720Z,10.48
2023-05-14T03:19:02.252Z,10.40
2023-05-14T03:22:04.861Z,10.31
2023-05-14T03:25:09.107Z,10.22
2023-05-14T03:28:11.251Z,10.20
2023-05-14T03:31:13.469Z,10.20
2023-05-14T03:34:15.615Z,10.20
2023-05-14T03:37:21.510Z,10.17
2023-05-14T03:40:25.156Z,10.12
2023-05-14T03:43:27.689Z,10.14
2023-05-14T03:46:30.080Z,10.08
2023-05-14T03:49:32.811Z,10.04
2023-05-14T03:52:35.338Z,10.06
2023-05-14T03:55:39.425Z,10.16
2023-05-14T03:58:45.841Z,10.18
2023-05-14T04:01:48.142Z,10.17
2023-05-14T04:04:50.062Z,10.12
2023-05-14T04:07:55.132Z,10.10
2023-05-14T04:11:01.068Z,10.07
2023-05-14T04:14:03.271Z,10.04
2023-05-14T04:17:05.643Z,10.05
2023-05-14T04:20:08.291Z,10.08
2023-05-14T04:23:10.197Z,10.18
2023-05-14T04:26:13.606Z,10.26
2023-05-14T04:29:15.659Z,10.28
2023-05-14T04:32:18.267Z,10.37
2023-05-14T04:35:24.072Z,10.42
2023-05-14T04:38:27.427Z,10.47
2023-05-14T04:41:30.823Z,10.52
2023-05-14T04:44:33.787Z,10.53
2023-05-14T04:47:36.286Z,10.58
2023-05-14T04:50:38.362Z,10.59
2023-05-14T04:53:40.246Z,10.64
2023-05-14T04:56:43.742Z,10.69
2023-05-14T04:59:46.059Z,10.77
2023-05-14T05:02:48.531Z,10.89
2023-05-14T05:05:50.831Z,11.05
2023-05-14T05:08:52.855Z,11.17
2023-05-14T05:11:56.362Z,11.23
2023-05-14T05:14:58.182Z,11.32
2023-05-14T05:18:00.347Z,11.38
2023-05-14T05:21:02.276Z,11.44
2023-05-14T05:24:04.428Z,11.59
2023-05-14T05:27:08.327Z,11.75
2023-05-14T05:30:10.537Z,11.91
2023-05-14T05:33:12.745Z,12.07
2023-05-14T05:36:14.721Z,12.20
2023-05-14T05:39:16.773Z,12.32
2023-05-14T05:42:20.185Z,12.43
2023-05-14T05:45:22.477Z,12.54
2023-05-14T05:48:25.162Z,12.60
2023-05-14T05:51:27.738Z,12.72
2023-05-14T05:54:29.629Z,12.83
2023-05-14T05:57:33.349Z,12.93
2023-05-14T06:00:35.935Z,13.00
2023-05-14T06:03:37.917Z,13.04
2023-05-14T06:06:40.155Z,13.13
2023-05-14T06:09:42.220Z,13.22
2023-05-14T06:12:45.676Z,13.28
2023-05-14T06:15:47.747Z,13.33
2023-05-14T06:18:52.928Z,13.48
2023-05-14T06:21:56.304Z,13.59
2023-05-14T06:24:58.267Z,13.62
2023-05-14T06:28:01.782Z,13.66
2023-05-14T06:31:03.853Z,13.72
2023-05-14T06:34:05.833Z,13.81
2023-05-14T06:37:07.848Z,13.94
2023-05-14T06:40:11.009Z,13.90
2023-05-14T06:43:15.901Z,13.90
2023-05-14T06:46:19.095Z,13.95
2023-05-14T06:49:21.321Z,14.06
2023-05-14T06:52:23.345Z,14.16
2023-05-14T06:55:25.290Z,14.18
2023-05-14T06:58:29.002Z,14.25
2023-05-14T07:01:30.913Z,14.38
2023-05-14T07:04:33.032Z,14.49
2023-05-14T07:07:35.073Z,14.53
2023-05-14T07:10:37.021Z,14.64
2023-05-14T07:13:40.844Z,14.75
2023-05-14T07:16:43.157Z,14.89
2023-05-14T07:19:45.484Z,14.89
2023-05-14T07:22:47.596Z,14.98
2023-05-14T07:25:49.783Z,15.00
2023-05-14T07:28:53.392Z,15.00
2023-05-14T07:31:55.654Z,14.94
2023-05-14T07:34:57.752Z,15.11
2023-05-14T07:38:00.022Z,15.23
2023-05-14T07:41:02.153Z,15.42
2023-05-14T07:44:12.663Z,15.66
2023-05-14T07:47:17.605Z,15.62
2023-05-14T07:50:19.720Z,15.63
2023-05-14T07:53:22.103Z,15.75
2023-05-14T07:56:24.262Z,15.64
2023-05-14T07:59:27.679Z,15.70
2023-05-14T08:02:30.003Z,16.04
2023-05-14T08:05:33.225Z,16.15
2023-05-14T08:08:35.230Z,16.13
2023-05-14T08:11:37.772Z,16.18
2023-05-14T08:14:41.629Z,16.39
2023-05-14T08:17:43.976Z,16.56
2023-05-14T08:20:46.044Z,16.68
2023-05-14T08:23:48.598Z,16.70
2023-05-14T08:26:50.956Z,16.78
2023-05-14T08:29:54.437Z,16.88
2023-05-14T08:32:56.481Z,16.86
2023-05-14T08:36:00.667Z,16.97
2023-05-14T08:39:07.732Z,17.04
2023-05-14T08:42:12.555Z,17.06
2023-05-14T08:45:18.232Z,17.14
2023-05-14T08:48:23.532Z,17.21
2023-05-14T08:51:26.984Z,17.17
2023-05-14T08:54:30.141Z,17.13
2023-05-14T08:57:32.842Z,17.12
2023-05-14T09:00:36.844Z,17.20
2023-05-14T09:03:45.157Z,17.06
2023-05-14T09:06:48.838Z,17.01
2023-05-14T09:09:52.303Z,17.21
2023-05-14T09:12:54.482Z,17.31
2023-05-14T09:15:58.976Z,17.40
2023-05-14T09:19:01.039Z,17.25
2023-05-14T09:22:08.916Z,17.10
2023-05-14T09:25:12.535Z,17.14
2023-05-14T09:28:17.097Z,17.31
2023-05-14T09:31:20.784Z,17.28
2023-05-14T09:34:26.302Z,17.14
2023-05-14T09:37:30.725Z,17.18
2023-05-14T09:40:32.774Z,17.28
2023-05-14T09:43:34.887Z,17.49
2023-05-14T09:46:38.493Z,17.64
2023-05-14T09:49:40.678Z,17.76
2023-05-14T09:52:42.776Z,17.74
2023-05-14T09:55:45.555Z,18.01
2023-05-14T09:58:50.567Z,18.07
2023-05-14T10:01:57.567Z,18.00
2023-05-14T10:05:03.020Z,18.10
2023-05-14T10:08:09.435Z,18.19
2023-05-14T10:11:13.877Z,18.33
2023-05-14T10:14:19.409Z,18.41
2023-05-14T10:17:28.013Z,17.91
2023-05-14T10:20:31.200Z,17.90
2023-05-14T10:23:33.880Z,17.82
2023-05-14T10:26:39.279Z,17.62
2023-05-14T10:29:43.235Z,17.89
2023-05-14T10:32:47.541Z,18.29
2023-05-14T10:36:18.926Z,18.64
2023-05-14T10:39:45.862Z,18.01
2023-05-14T10:42:49.194Z,18.07
2023-05-14T10:45:51.938Z,18.59
2023-05-14T10:48:56.900Z,18.52
2023-05-14T10:51:59.339Z,18.12
2023-05-14T10:55:03.661Z,18.14
2023-05-14T10:58:06.880Z,18.18
2023-05-14T11:01:12.181Z,18.60
2023-05-14T11:04:20.085Z,18.89
2023-05-14T11:07:24.515Z,18.65
2023-05-14T11:10:30.351Z,19.13
2023-05-14T11:13:37.216Z,19.77
2023-05-14T11:16:41.718Z,20.10
2023-05-14T11:19:45.990Z,19.75
2023-05-14T11:22:49.273Z,20.01
2023-05-14T11:25:53.106Z,19.62
2023-05-14T11:28:55.277Z,19.63
2023-05-14T11:31:57.493Z,19.32
2023-05-14T11:35:01.308Z,18.98
2023-05-14T11:38:03.152Z,18.94
2023-05-14T11:41:05.898Z,19.11
2023-05-14T11:44:09.167Z,19.41
2023-05-14T11:47:15.811Z,19.76
2023-05-14T11:50:19.393Z,19.83
2023-05-14T11:53:25.221Z,19.83
2023-05-14T11:56:27.319Z,19.97
2023-05-14T11:59:34.135Z,20.16
2023-05-14T12:02:38.822Z,20.27
2023-05-14T12:05:55.360Z,20.44
2023-05-14T12:08:58.270Z,20.27
2023-05-14T12:12:07.812Z,19.86
2023-05-14T12:15:13.726Z,20.16
2023-05-14T12:18:24.522Z,20.44
2023-05-14T12:21:33.049Z,20.44
2023-05-14T12:24:35.080Z,20.36
2023-05-14T12:27:37.972Z,20.13
2023-05-14T12:30:41.344Z,19.90
2023-05-14T12:33:43.746Z,19.61
2023-05-14T12:36:47.589Z,19.32
2023-05-14T12:39:49.429Z,19.19
2023-05-14T12:42:51.406Z,18.86
2023-05-14T12:45:53.788Z,18.58
2023-05-14T12:48:56.000Z,18.36
2023-05-14T12:52:13.162Z,18.32
2023-05-14T12:55:22.542Z,18.28
2023-05-14T12:58:24.806Z,18.23
2023-05-14T13:01:27.048Z,18.19
2023-05-14T13:04:29.332Z,18.17
2023-05-14T13:07:33.185Z,18.25
2023-05-14T13:10:35.088Z,18.35
2023-05-14T13:13:37.136Z,18.37
2023-05-14T13:16:39.134Z,18.32
2023-05-14T13:19:42.395Z,18.28
2023-05-14T13:22:45.890Z,18.36
2023-05-14T13:25:49.745Z,18.39
2023-05-14T13:28:52.631Z,18.29
2023-05-14T13:31:57.500Z,18.23
2023-05-14T13:34:59.396Z,18.14
2023-05-14T13:38:03.117Z,18.01
2023-05-14T13:41:05.618Z,17.83
2023-05-14T13:44:07.897Z,17.70
2023-05-14T13:47:09.906Z,17.60
2023-05-14T13:50:12.701Z,17.50
2023-05-14T13:53:16.097Z,17.37
2023-05-14T13:56:18.393Z,17.33
2023-05-14T13:59:22.360Z,17.17
2023-05-14T14:02:25.153Z,17.10
2023-05-14T14:05:28.678Z,17.08
2023-05-14T14:08:32.069Z,17.17
2023-05-14T14:11:34.188Z,17.21
2023-05-14T14:14:36.171Z,17.31
2023-05-14T14:17:39.188Z,17.35
2023-05-14T14:20:41.517Z,17.39
2023-05-14T14:23:45.858Z,17.45
2023-05-14T14:26:48.026Z,17.46
2023-05-14T14:29:52.147Z,17.54
2023-05-14T14:32:54.774Z,17.51
2023-05-14T14:35:57.017Z,17.53
2023-05-14T14:39:00.681Z,17.52
2023-05-14T14:42:02.797Z,17.64
2023-05-14T14:45:05.256Z,17.55
2023-05-14T14:48:23.307Z,17.58
2023-05-14T14:51:25.512Z,17.47
2023-05-14T14:54:29.357Z,17.60
2023-05-14T14:57:31.491Z,17.67
2023-05-14T15:00:34.265Z,17.63
2023-05-14T15:03:36.788Z,17.66
2023-05-14T15:06:38.760Z,17.67
2023-05-14T15:09:44.315Z,17.71
2023-05-14T15:12:46.404Z,17.72
2023-05-14T15:15:50.730Z,17.72
2023-05-14T15:18:52.873Z,17.79
2023-05-14T15:21:55.362Z,17.88
2023-05-14T15:24:59.294Z,18.02
2023-05-14T15:28:01.502Z,18.05
2023-05-14T15:31:03.605Z,17.97
2023-05-14T15:34:05.780Z,17.84
2023-05-14T15:37:07.818Z,17.74
2023-05-14T15:40:11.947Z,17.83
2023-05-14T15:43:13.999Z,18.35
2023-05-14T15:46:16.036Z,18.55
2023-05-14T15:49:18.070Z,18.55
2023-05-14T15:52:20.642Z,18.81
2023-05-14T15:55:24.280Z,18.98
2023-05-14T15:58:29.909Z,18.97
2023-05-14T16:01:31.916Z,18.75
2023-05-14T16:04:35.936Z,18.59
2023-05-14T16:07:38.638Z,18.25
2023-05-14T16:10:42.206Z,18.03
2023-05-14T16:13:46.192Z,17.94
2023-05-14T16:16:48.257Z,17.89
2023-05-14T16:19:52.830Z,17.85
2023-05-14T16:22:58.258Z,17.73
2023-05-14T16:26:01.848Z,17.75
2023-05-14T16:29:04.442Z,17.58
2023-05-14T16:32:06.619Z,17.29
2023-05-14T16:35:08.971Z,17.08
2023-05-14T16:38:11.077Z,17.04
2023-05-14T16:41:14.753Z,16.94
2023-05-14T16:44:16.681Z,16.61
2023-05-14T16:47:19.990Z,16.25
2023-05-14T16:50:21.941Z,16.03
2023-05-14T16:53:24.133Z,15.88
2023-05-14T16:56:27.811Z,15.76
2023-05-14T16:59:30.318Z,15.66
2023-05-14T17:02:33.625Z,15.59
2023-05-14T17:05:36.312Z,15.62
2023-05-14T17:08:38.558Z,15.59
2023-05-14T17:11:44.769Z,15.59
2023-05-14T17:14:46.783Z,15.71
2023-05-14T17:17:49.004Z,15.65
2023-05-14T17:20:51.488Z,15.67
2023-05-14T17:23:53.756Z,15.57
2023-05-14T17:26:57.425Z,15.41
2023-05-14T17:29:59.468Z,15.31
2023-05-14T17:33:02.490Z,15.36
2023-05-14T17:36:04.824Z,15.45
2023-05-14T17:39:07.115Z,15.41
2023-05-14T17:42:10.995Z,15.15
2023-05-14T17:45:15.589Z,15.11
2023-05-14T17:48:17.773Z,15.15
2023-05-14T17:51:20.196Z,15.10
2023-05-14T17:54:23.292Z,15.08
2023-05-14T17:57:27.392Z,15.15
2023-05-14T18:00:29.371Z,15.28
2023-05-14T18:03:32.044Z,15.36
2023-05-14T18:06:34.334Z,15.40
2023-05-14T18:09:36.406Z,15.37
2023-05-14T18:12:41.802Z,15.37
2023-05-14T18:15:43.843Z,15.36
2023-05-14T18:18:45.855Z,15.37
2023-05-14T18:21:48.312Z,15.37
2023-05-14T18:24:50.543Z,15.38
2023-05-14T18:27:54.057Z,15.37
2023-05-14T18:30:56.133Z,15.29
2023-05-14T18:33:58.114Z,15.25
2023-05-14T18:37:00.508Z,15.24
2023-05-14T18:40:04.519Z,15.21
2023-05-14T18:43:13.425Z,15.19
2023-05-14T18:46:15.476Z,15.13
2023-05-14T18:49:17.673Z,15.03
2023-05-14T18:52:19.814Z,14.95
2023-05-14T18:55:22.062Z,14.81
2023-05-14T18:58:25.479Z,14.73
2023-05-14T19:01:28.135Z,14.67
2023-05-14T19:04:33.297Z,14.61
2023-05-14T19:07:40.216Z,14.60
2023-05-14T19:10:42.246Z,14.55
2023-05-14T19:13:46.889Z,14.51
2023-05-14T19:16:48.881Z,14.47
2023-05-14T19:19:51.052Z,14.45
2023-05-14T19:22:53.114Z,14.41
2023-05-14T19:25:55.010Z,14.40
2023-05-14T19:29:01.643Z,14.38
2023-05-14T19:32:04.738Z,14.30
2023-05-14T19:35:06.864Z,14.27
2023-05-14T19:38:10.855Z,14.21
2023-05-14T19:41:12.962Z,14.17
2023-05-14T19:44:16.314Z,14.13
2023-05-14T19:47:18.401Z,14.07
2023-05-14T19:50:20.425Z,14.07
2023-05-14T19:53:22.470Z,14.07
2023-05-14T19:56:27.009Z,14.08
2023-05-14T19:59:30.948Z,14.07
2023-05-14T20:02:34.307Z,14.02
2023-05-14T20:05:36.398Z,14.04
2023-05-14T20:08:38.415Z,14.01
2023-05-14T20:11:40.696Z,13.97
2023-05-14T20:14:44.052Z,13.91
2023-05-14T20:17:46.329Z,13.92
2023-05-14T20:20:49.142Z,13.97
2023-05-14T20:23:51.382Z,13.96
2023-05-14T20:26:53.619Z,13.90
2023-05-14T20:29:57.040Z,13.90
2023-05-14T20:32:59.624Z,13.90
2023-05-14T20:36:04.566Z,13.96
2023-05-14T20:39:06.621Z,13.89
2023-05-14T20:42:08.569Z,13.71
2023-05-14T20:45:12.121Z,13.61
2023-05-14T20:48:16.529Z,13.53
2023-05-14T20:51:19.525Z,13.41
2023-05-14T20:54:22.725Z,13.31
2023-05-14T20:57:30.113Z,13.29
2023-05-14T21:00:35.852Z,13.25
2023-05-14T21:03:38.219Z,13.28
2023-05-14T21:06:40.244Z,13.29
2023-05-14T21:09:43.731Z,13.28
2023-05-14T21:12:45.879Z,13.28
2023-05-14T21:15:50.284Z,13.25
2023-05-14T21:18:53.219Z,13.22
2023-05-14T21:21:55.341Z,13.17
2023-05-14T21:24:58.393Z,13.17
2023-05-14T21:28:02.153Z,13.13
2023-05-14T21:31:06.333Z,13.04
2023-05-14T21:34:09.103Z,13.03
2023-05-14T21:37:11.243Z,12.97
2023-05-14T21:40:13.590Z,12.95
2023-05-14T21:43:15.880Z,12.94
2023-05-14T21:46:20.092Z,12.95
2023-05-14T21:49:23.454Z,12.91
2023-05-14T21:52:26.166Z,12.91
2023-05-14T21:55:30.912Z,12.89
2023-05-14T21:58:32.867Z,12.84
2023-05-14T22:01:50.640Z,12.89
2023-05-14T22:04:58.523Z,12.88
2023-05-14T22:08:00.695Z,12.89
2023-05-14T22:11:02.774Z,12.87
2023-05-14T22:14:04.969Z,12.78
2023-05-14T22:17:08.548Z,12.66
2023-05-14T22:20:10.621Z,12.62
2023-05-14T22:23:13.042Z,12.61
2023-05-14T22:26:16.086Z,12.60
2023-05-14T22:29:20.652Z,12.59
2023-05-14T22:32:24.072Z,12.59
2023-05-14T22:35:26.376Z,12.54
2023-05-14T22:38:28.376Z,12.57
2023-05-14T22:41:30.788Z,12.60
2023-05-14T22:44:32.655Z,12.63
2023-05-14T22:47:36.035Z,12.68
2023-05-14T22:50:37.980Z,12.77
2023-05-14T22:53:39.856Z,12.83
2023-05-14T22:56:41.834Z,12.86
2023-05-14T22:59:43.899Z,12.88
2023-05-14T23:02:47.248Z,12.93
2023-05-14T23:05:49.367Z,12.97
2023-05-14T23:08:51.222Z,13.01
2023-05-14T23:11:53.322Z,13.02
2023-05-14T23:14:55.267Z,13.05
2023-05-14T23:17:58.901Z,13.12
2023-05-14T23:21:04.141Z,13.18
2023-05-14T23:24:06.289Z,13.10
2023-05-14T23:27:08.529Z,12.93
2023-05-14T23:30:10.928Z,13.01
2023-05-14T23:33:14.503Z,13.09
2023-05-14T23:36:16.464Z,13.11
2023-05-14T23:39:18.438Z,13.24
2023-05-14T23:42:20.734Z,13.23
2023-05-14T23:45:25.439Z,13.29
2023-05-14T23:48:28.945Z,13.27
2023-05-14T23:51:31.047Z,13.27
2023-05-14T23:54:32.939Z,13.26
2023-05-14T23:57:35.594Z,13.28
